createdAt,value
2018-09-12T00:00:58.441Z,99.49
2018-09-12T00:01:58.399Z,99.30
2018-09-12T00:02:58.422Z,99.40
2018-09-12T00:03:58.437Z,99.69
2018-09-12T00:04:58.431Z,99.99
2018-09-12T00:05:58.409Z,99.88
2018-09-12T00:06:58.444Z,99.30
2018-09-12T00:07:58.401Z,99.99
2018-09-12T00:08:58.430Z,99.99
2018-09-12T00:09:58.418Z,99.69
2018-09-12T00:10:58.453Z,99.99
2018-09-12T00:11:58.431Z,99.99
2018-09-12T00:12:58.465Z,99.99
2018-09-12T00:13:58.445Z,99.98
2018-09-12T00:14:58.455Z,99.99
2018-09-12T00:15:58.440Z,99.99
2018-09-12T00:16:58.439Z,99.99
2018-09-12T00:17:58.454Z,99.99
2018-09-12T00:18:58.437Z,99.99
2018-09-12T00:19:58.457Z,99.99
2018-09-12T00:20:58.457Z,99.99
2018-09-12T00:21:58.477Z,99.99
2018-09-12T00:22:58.456Z,99.99
2018-09-12T00:23:58.460Z,99.99
2018-09-12T00:24:58.663Z,99.99
2018-09-12T00:25:58.495Z,99.99
2018-09-12T00:26:58.483Z,99.99
2018-09-12T00:27:58.467Z,99.99
2018-09-12T00:28:58.454Z,99.99
2018-09-12T00:29:58.482Z,99.99
2018-09-12T00:30:58.479Z,99.99
2018-09-12T00:31:58.489Z,99.99
2018-09-12T00:32:58.477Z,99.99
2018-09-12T00:33:58.473Z,99.99
2018-09-12T00:34:58.490Z,99.59
2018-09-12T00:35:58.485Z,98.72
2018-09-12T00:36:58.530Z,99.16
2018-09-12T00:37:58.587Z,99.40
2018-09-12T00:38:58.497Z,99.21
2018-09-12T00:39:58.498Z,99.40
2018-09-12T00:40:58.518Z,99.01
2018-09-12T00:41:58.496Z,99.01
2018-09-12T00:42:58.501Z,99.59
2018-09-12T00:43:58.513Z,99.40
2018-09-12T00:44:58.521Z,98.63
2018-09-12T00:45:58.525Z,98.54
2018-09-12T00:46:58.558Z,98.63
2018-09-12T00:47:58.519Z,98.44
2018-09-12T00:48:58.526Z,99.40
2018-09-12T00:49:58.525Z,98.34
2018-09-12T00:50:58.566Z,98.24
2018-09-12T00:51:58.521Z,98.72
2018-09-12T00:52:58.527Z,98.72
2018-09-12T00:53:58.528Z,97.09
2018-09-12T00:54:58.542Z,97.76
2018-09-12T00:55:58.542Z,97.96
2018-09-12T00:56:58.536Z,98.82
2018-09-12T00:57:58.547Z,97.47
2018-09-12T00:58:58.547Z,97.96
2018-09-12T00:59:58.560Z,97.96
2018-09-12T01:00:58.630Z,96.80
2018-09-12T01:01:58.560Z,96.70
2018-09-12T01:02:58.571Z,97.96
2018-09-12T01:03:58.556Z,95.84
2018-09-12T01:04:58.592Z,95.94
2018-09-12T01:05:59.495Z,95.45
2018-09-12T01:06:58.593Z,94.87
2018-09-12T01:07:58.568Z,95.65
2018-09-12T01:08:58.598Z,95.45
2018-09-12T01:09:58.575Z,95.74
2018-09-12T01:10:58.596Z,96.70
2018-09-12T01:11:58.588Z,96.61
2018-09-12T01:12:58.566Z,96.99
2018-09-12T01:13:58.579Z,96.42
2018-09-12T01:14:58.581Z,95.17
2018-09-12T01:15:58.586Z,95.07
2018-09-12T01:16:58.593Z,95.36
2018-09-12T01:17:58.598Z,93.62
2018-09-12T01:18:58.687Z,92.66
2018-09-12T01:19:58.600Z,94.49
2018-09-12T01:20:58.590Z,94.40
2018-09-12T01:21:58.597Z,95.36
2018-09-12T01:22:58.643Z,95.26
2018-09-12T01:23:58.603Z,95.36
2018-09-12T01:24:58.620Z,94.87
2018-09-12T01:25:58.621Z,96.89
2018-09-12T01:26:58.620Z,95.94
2018-09-12T01:27:58.638Z,95.94
2018-09-12T01:28:59.508Z,95.45
2018-09-12T01:29:58.643Z,94.97
2018-09-12T01:30:58.616Z,94.87
2018-09-12T01:31:58.655Z,95.07
2018-09-12T01:32:58.631Z,94.92
2018-09-12T01:33:58.638Z,95.17
2018-09-12T01:34:58.646Z,94.59
2018-09-12T01:35:58.632Z,92.95
2018-09-12T01:36:58.632Z,92.38
2018-09-12T01:37:58.665Z,91.75
2018-09-12T01:38:58.641Z,92.57
2018-09-12T01:39:58.646Z,92.85
2018-09-12T01:40:58.641Z,91.80
2018-09-12T01:41:58.768Z,91.41
2018-09-12T01:42:58.648Z,90.59
2018-09-12T01:43:58.659Z,91.08
2018-09-12T01:44:58.659Z,90.06
2018-09-12T01:45:58.660Z,89.87
2018-09-12T01:46:58.664Z,90.06
2018-09-12T01:47:58.659Z,89.20
2018-09-12T01:48:58.698Z,89.87
2018-09-12T01:49:58.686Z,89.83
2018-09-12T01:50:58.687Z,89.10
2018-09-12T01:51:58.692Z,89.58
2018-09-12T01:52:58.719Z,88.62
2018-09-12T01:53:58.709Z,88.33
2018-09-12T01:54:58.762Z,88.00
2018-09-12T01:55:58.857Z,88.62
2018-09-12T01:56:58.689Z,88.33
2018-09-12T01:57:58.690Z,88.53
2018-09-12T01:58:58.694Z,88.67
2018-09-12T01:59:58.700Z,88.24
2018-09-12T02:00:58.690Z,86.94
2018-09-12T02:01:58.780Z,87.08
2018-09-12T02:02:58.715Z,87.71
2018-09-12T02:03:58.710Z,86.85
2018-09-12T02:04:58.704Z,87.27
2018-09-12T02:05:58.715Z,86.51
2018-09-12T02:06:58.702Z,86.36
2018-09-12T02:07:58.701Z,86.56
2018-09-12T02:08:58.726Z,86.08
2018-09-12T02:09:58.743Z,85.40
2018-09-12T02:10:58.734Z,87.90
2018-09-12T02:11:58.717Z,87.52
2018-09-12T02:12:58.782Z,86.46
2018-09-12T02:13:58.727Z,88.00
2018-09-12T02:14:58.731Z,88.29
2018-09-12T02:15:58.730Z,86.94
2018-09-12T02:16:58.731Z,86.56
2018-09-12T02:17:58.759Z,88.29
2018-09-12T02:18:58.759Z,88.00
2018-09-12T02:19:58.726Z,88.10
2018-09-12T02:20:58.744Z,88.19
2018-09-12T02:21:58.736Z,88.00
2018-09-12T02:22:58.755Z,87.33
2018-09-12T02:23:58.759Z,86.65
2018-09-12T02:24:58.749Z,87.71
2018-09-12T02:25:58.814Z,87.52
2018-09-12T02:26:58.750Z,88.19
2018-09-12T02:27:58.758Z,88.19
2018-09-12T02:28:58.764Z,87.13
2018-09-12T02:29:58.772Z,87.62
2018-09-12T02:30:58.786Z,87.71
2018-09-12T02:31:58.787Z,87.52
2018-09-12T02:32:58.788Z,87.42
2018-09-12T02:33:58.768Z,87.90
2018-09-12T02:34:58.772Z,89.15
2018-09-12T02:35:58.809Z,89.73
2018-09-12T02:36:58.786Z,90.02
2018-09-12T02:37:58.798Z,90.02
2018-09-12T02:38:58.795Z,90.50
2018-09-12T02:39:58.789Z,91.36
2018-09-12T02:40:58.788Z,92.23
2018-09-12T02:41:58.791Z,93.29
2018-09-12T02:42:58.796Z,92.52
2018-09-12T02:43:58.826Z,93.00
2018-09-12T02:44:58.800Z,92.61
2018-09-12T02:45:58.795Z,91.36
2018-09-12T02:46:58.795Z,91.75
2018-09-12T02:47:58.806Z,91.56
2018-09-12T02:48:58.826Z,91.85
2018-09-12T02:49:58.827Z,91.36
2018-09-12T02:50:58.815Z,92.13
2018-09-12T02:51:58.816Z,91.75
2018-09-12T02:52:58.854Z,91.17
2018-09-12T02:53:58.923Z,91.27
2018-09-12T02:54:58.819Z,89.92
2018-09-12T02:55:58.818Z,90.41
2018-09-12T02:56:58.829Z,89.15
2018-09-12T02:57:58.833Z,89.64
2018-09-12T02:58:58.841Z,88.57
2018-09-12T02:59:58.834Z,89.44
2018-09-12T03:00:58.855Z,89.54
2018-09-12T03:01:58.832Z,88.57
2018-09-12T03:02:58.838Z,88.10
2018-09-12T03:03:58.852Z,88.39
2018-09-12T03:04:58.849Z,86.46
2018-09-12T03:05:58.838Z,87.13
2018-09-12T03:06:58.928Z,87.62
2018-09-12T03:07:58.902Z,88.00
2018-09-12T03:08:58.846Z,88.00
2018-09-12T03:09:58.851Z,87.52
2018-09-12T03:10:58.848Z,86.56
2018-09-12T03:11:58.849Z,86.18
2018-09-12T03:12:58.875Z,86.27
2018-09-12T03:13:58.864Z,86.94
2018-09-12T03:14:58.896Z,87.13
2018-09-12T03:15:58.889Z,86.56
2018-09-12T03:16:58.931Z,87.33
2018-09-12T03:17:58.894Z,86.56
2018-09-12T03:18:58.890Z,86.08
2018-09-12T03:19:58.874Z,86.18
2018-09-12T03:20:59.133Z,86.75
2018-09-12T03:21:58.895Z,85.98
2018-09-12T03:22:58.887Z,85.98
2018-09-12T03:23:58.881Z,86.08
2018-09-12T03:24:58.888Z,84.83
2018-09-12T03:25:58.899Z,85.11
2018-09-12T03:26:58.886Z,84.83
2018-09-12T03:27:58.897Z,84.83
2018-09-12T03:28:58.905Z,85.02
2018-09-12T03:29:59.001Z,85.50
2018-09-12T03:30:58.937Z,84.73
2018-09-12T03:31:58.915Z,84.63
2018-09-12T03:32:58.905Z,84.83
2018-09-12T03:33:58.906Z,84.44
2018-09-12T03:34:58.920Z,84.83
2018-09-12T03:35:58.930Z,84.54
2018-09-12T03:36:58.930Z,84.25
2018-09-12T03:37:58.921Z,84.44
2018-09-12T03:38:58.945Z,83.86
2018-09-12T03:39:58.937Z,82.52
2018-09-12T03:40:58.927Z,83.09
2018-09-12T03:41:58.950Z,83.96
2018-09-12T03:42:58.975Z,83.48
2018-09-12T03:43:58.939Z,84.44
2018-09-12T03:44:58.956Z,83.77
2018-09-12T03:45:58.935Z,82.81
2018-09-12T03:46:58.935Z,82.71
2018-09-12T03:47:58.980Z,81.84
2018-09-12T03:48:58.963Z,79.92
2018-09-12T03:49:58.945Z,80.50
2018-09-12T03:50:58.962Z,79.73
2018-09-12T03:51:58.954Z,78.67
2018-09-12T03:52:58.961Z,78.44
2018-09-12T03:53:58.952Z,78.53
2018-09-12T03:54:58.953Z,78.63
2018-09-12T03:55:58.966Z,78.53
2018-09-12T03:56:58.995Z,78.15
2018-09-12T03:57:58.976Z,75.56
2018-09-12T03:58:58.985Z,74.79
2018-09-12T03:59:58.981Z,73.06
2018-09-12T04:00:58.998Z,72.48
2018-09-12T04:01:58.995Z,72.38
2018-09-12T04:02:58.979Z,73.25
2018-09-12T04:03:58.972Z,72.67
2018-09-12T04:04:58.976Z,72.29
2018-09-12T04:05:58.983Z,71.81
2018-09-12T04:06:59.020Z,71.33
2018-09-12T04:07:58.995Z,70.56
2018-09-12T04:08:58.979Z,70.27
2018-09-12T04:09:59.008Z,69.85
2018-09-12T04:10:59.132Z,70.75
2018-09-12T04:11:58.997Z,70.52
2018-09-12T04:12:58.996Z,70.94
2018-09-12T04:13:59.003Z,70.04
2018-09-12T04:14:59.020Z,68.98
2018-09-12T04:15:59.007Z,68.51
2018-09-12T04:16:59.070Z,67.93
2018-09-12T04:17:59.024Z,66.97
2018-09-12T04:18:59.041Z,65.81
2018-09-12T04:19:59.020Z,64.18
2018-09-12T04:20:59.031Z,62.93
2018-09-12T04:21:59.034Z,61.87
2018-09-12T04:22:59.044Z,61.40
2018-09-12T04:23:59.102Z,60.69
2018-09-12T04:24:59.049Z,59.38
2018-09-12T04:25:59.034Z,59.66
2018-09-12T04:26:59.084Z,58.80
2018-09-12T04:27:59.054Z,58.22
2018-09-12T04:28:59.034Z,58.67
2018-09-12T04:29:59.034Z,57.93
2018-09-12T04:30:59.051Z,57.93
2018-09-12T04:31:59.034Z,57.26
2018-09-12T04:32:59.047Z,57.14
2018-09-12T04:33:59.047Z,57.07
2018-09-12T04:34:59.047Z,57.75
2018-09-12T04:35:59.054Z,57.65
2018-09-12T04:36:59.098Z,58.80
2018-09-12T04:37:59.061Z,57.84
2018-09-12T04:38:59.086Z,57.65
2018-09-12T04:39:59.081Z,57.65
2018-09-12T04:40:59.070Z,57.65
2018-09-12T04:41:59.070Z,58.22
2018-09-12T04:42:59.101Z,57.65
2018-09-12T04:43:59.097Z,57.75
2018-09-12T04:44:59.064Z,57.07
2018-09-12T04:45:59.065Z,57.07
2018-09-12T04:46:59.073Z,56.98
2018-09-12T04:47:59.077Z,57.07
2018-09-12T04:48:59.081Z,57.07
2018-09-12T04:49:59.086Z,57.26
2018-09-12T04:50:59.071Z,57.45
2018-09-12T04:52:00.116Z,58.22
2018-09-12T04:52:59.079Z,58.89
2018-09-12T04:53:59.120Z,58.13
2018-09-12T04:54:59.090Z,58.13
2018-09-12T04:55:59.090Z,58.80
2018-09-12T04:56:59.148Z,59.47
2018-09-12T04:57:59.145Z,59.09
2018-09-12T04:58:59.176Z,60.24
2018-09-12T04:59:59.147Z,61.40
2018-09-12T05:00:59.162Z,61.91
2018-09-12T05:01:59.100Z,62.77
2018-09-12T05:02:59.125Z,62.38
2018-09-12T05:03:59.104Z,62.87
2018-09-12T05:04:59.122Z,62.48
2018-09-12T05:05:59.113Z,64.12
2018-09-12T05:06:59.119Z,64.60
2018-09-12T05:07:59.119Z,64.12
2018-09-12T05:08:59.128Z,65.37
2018-09-12T05:09:59.123Z,65.84
2018-09-12T05:10:59.130Z,65.66
2018-09-12T05:11:59.155Z,65.37
2018-09-12T05:12:59.138Z,65.56
2018-09-12T05:13:59.137Z,66.33
2018-09-12T05:14:59.132Z,67.10
2018-09-12T05:15:59.148Z,68.92
2018-09-12T05:16:59.154Z,68.35
2018-09-12T05:17:59.149Z,66.42
2018-09-12T05:18:59.148Z,66.33
2018-09-12T05:19:59.175Z,66.81
2018-09-12T05:20:59.181Z,67.38
2018-09-12T05:21:59.180Z,65.46
2018-09-12T05:22:59.174Z,65.17
2018-09-12T05:23:59.155Z,65.66
2018-09-12T05:24:59.176Z,65.17
2018-09-12T05:25:59.168Z,65.46
2018-09-12T05:26:59.165Z,65.37
2018-09-12T05:27:59.157Z,65.01
2018-09-12T05:28:59.164Z,65.40
2018-09-12T05:29:59.172Z,65.56
2018-09-12T05:30:59.183Z,64.63
2018-09-12T05:31:59.171Z,63.15
2018-09-12T05:32:59.217Z,62.99
2018-09-12T05:33:59.165Z,61.74
2018-09-12T05:34:59.176Z,61.55
2018-09-12T05:35:59.299Z,60.88
2018-09-12T05:36:59.202Z,61.36
2018-09-12T05:37:59.196Z,60.39
2018-09-12T05:38:59.194Z,59.50
2018-09-12T05:39:59.208Z,58.06
2018-09-12T05:40:59.212Z,58.09
2018-09-12T05:41:59.228Z,58.28
2018-09-12T05:42:59.222Z,59.44
2018-09-12T05:43:59.293Z,60.88
2018-09-12T05:44:59.206Z,61.81
2018-09-12T05:45:59.219Z,61.74
2018-09-12T05:46:59.221Z,63.09
2018-09-12T05:47:59.242Z,61.74
2018-09-12T05:48:59.258Z,63.67
2018-09-12T05:49:59.264Z,64.05
2018-09-12T05:50:59.212Z,64.34
2018-09-12T05:51:59.231Z,63.95
2018-09-12T05:52:59.256Z,64.34
2018-09-12T05:53:59.222Z,68.09
2018-09-12T05:54:59.239Z,68.76
2018-09-12T05:55:59.253Z,69.34
2018-09-12T05:56:59.281Z,69.92
2018-09-12T05:57:59.244Z,69.53
2018-09-12T05:58:59.375Z,68.48
2018-09-12T05:59:59.253Z,68.48
2018-09-12T06:00:59.255Z,67.61
2018-09-12T06:01:59.258Z,68.86
2018-09-12T06:02:59.263Z,67.13
2018-09-12T06:03:59.254Z,67.99
2018-09-12T06:04:59.304Z,66.27
2018-09-12T06:05:59.300Z,65.69
2018-09-12T06:06:59.297Z,65.69
2018-09-12T06:07:59.270Z,67.32
2018-09-12T06:08:59.289Z,67.99
2018-09-12T06:09:59.253Z,68.86
2018-09-12T06:10:59.254Z,69.92
2018-09-12T06:11:59.376Z,70.82
2018-09-12T06:12:59.282Z,70.68
2018-09-12T06:13:59.288Z,70.92
2018-09-12T06:14:59.267Z,69.28
2018-09-12T06:15:59.275Z,69.47
2018-09-12T06:16:59.298Z,70.92
2018-09-12T06:17:59.287Z,74.67
2018-09-12T06:18:59.319Z,73.22
2018-09-12T06:19:59.339Z,74.57
2018-09-12T06:20:59.290Z,75.63
2018-09-12T06:21:59.308Z,75.15
2018-09-12T06:22:59.295Z,74.38
2018-09-12T06:23:59.348Z,74.48
2018-09-12T06:24:59.316Z,73.71
2018-09-12T06:25:59.316Z,73.71
2018-09-12T06:26:59.340Z,73.71
2018-09-12T06:27:59.306Z,73.09
2018-09-12T06:28:59.316Z,72.65
2018-09-12T06:29:59.429Z,72.07
2018-09-12T06:30:59.341Z,71.69
2018-09-12T06:31:59.316Z,71.69
2018-09-12T06:32:59.314Z,72.03
2018-09-12T06:33:59.321Z,71.17
2018-09-12T06:34:59.327Z,71.55
2018-09-12T06:35:59.326Z,70.59
2018-09-12T06:36:59.333Z,69.73
2018-09-12T06:37:59.324Z,70.59
2018-09-12T06:38:59.325Z,70.68
2018-09-12T06:39:59.362Z,70.88
2018-09-12T06:40:59.335Z,71.65
2018-09-12T06:41:59.335Z,72.71
2018-09-12T06:42:59.411Z,71.75
2018-09-12T06:43:59.373Z,70.68
2018-09-12T06:44:59.349Z,71.84
2018-09-12T06:45:59.419Z,73.77
2018-09-12T06:46:59.360Z,73.77
2018-09-12T06:47:59.372Z,73.51
2018-09-12T06:48:59.417Z,74.48
2018-09-12T06:49:59.694Z,75.24
2018-09-12T06:50:59.385Z,74.96
2018-09-12T06:51:59.380Z,75.24
2018-09-12T06:52:59.362Z,75.24
2018-09-12T06:53:59.439Z,76.11
2018-09-12T06:54:59.567Z,76.59
2018-09-12T06:55:59.498Z,76.78
2018-09-12T06:56:59.424Z,76.31
2018-09-12T06:57:59.370Z,76.40
2018-09-12T06:58:59.412Z,76.78
2018-09-12T06:59:59.398Z,77.75
2018-09-12T07:00:59.470Z,77.46
2018-09-12T07:01:59.400Z,79.48
2018-09-12T07:02:59.502Z,78.81
2018-09-12T07:03:59.401Z,78.65
2018-09-12T07:04:59.394Z,80.87
2018-09-12T07:05:59.418Z,82.12
2018-09-12T07:06:59.432Z,82.12
2018-09-12T07:07:59.400Z,82.98
2018-09-12T07:08:59.437Z,81.63
2018-09-12T07:09:59.420Z,83.22
2018-09-12T07:10:59.414Z,83.22
2018-09-12T07:12:06.483Z,90.15
2018-09-12T07:12:59.445Z,97.33
2018-09-12T07:13:59.541Z,99.88
2018-09-12T07:14:59.444Z,99.99
2018-09-12T07:15:59.476Z,99.99
2018-09-12T07:16:59.455Z,99.99
2018-09-12T07:17:59.519Z,99.99
2018-09-12T07:19:00.264Z,99.79
2018-09-12T07:19:59.472Z,99.99
2018-09-12T07:20:59.454Z,99.79
2018-09-12T07:21:59.537Z,99.99
2018-09-12T07:22:59.443Z,99.99
2018-09-12T07:23:59.522Z,99.99
2018-09-12T07:24:59.477Z,98.10
2018-09-12T07:25:59.471Z,97.04
2018-09-12T07:26:59.495Z,95.06
2018-09-12T07:27:59.478Z,92.85
2018-09-12T07:28:59.462Z,92.94
2018-09-12T07:29:59.487Z,92.56
2018-09-12T07:30:59.591Z,92.56
2018-09-12T07:31:59.509Z,92.65
2018-09-12T07:32:59.522Z,91.69
2018-09-12T07:33:59.485Z,92.65
2018-09-12T07:34:59.553Z,92.56
2018-09-12T07:35:59.480Z,91.20
2018-09-12T07:36:59.611Z,90.53
2018-09-12T07:37:59.545Z,89.18
2018-09-12T07:38:59.500Z,89.33
2018-09-12T07:39:59.555Z,89.28
2018-09-12T07:40:59.610Z,92.89
2018-09-12T07:41:59.550Z,94.24
2018-09-12T07:42:59.763Z,93.85
2018-09-12T07:43:59.816Z,92.36
2018-09-12T07:44:59.537Z,92.41
2018-09-12T07:45:59.637Z,93.47
2018-09-12T07:47:00.189Z,92.99
2018-09-12T07:47:59.537Z,94.15
2018-09-12T07:48:59.642Z,93.47
2018-09-12T07:49:59.638Z,99.99
2018-09-12T07:50:59.603Z,96.94
2018-09-12T07:51:59.563Z,96.75
2018-09-12T07:52:59.577Z,99.99
2018-09-12T07:53:59.608Z,99.99
2018-09-12T07:54:59.775Z,99.99
2018-09-12T07:55:59.650Z,99.99
2018-09-12T07:56:59.585Z,99.99
2018-09-12T07:57:59.600Z,99.99
2018-09-12T07:58:59.648Z,99.99
2018-09-12T07:59:59.644Z,99.99
2018-09-12T08:00:59.569Z,99.99
2018-09-12T08:01:59.612Z,99.99
2018-09-12T08:02:59.751Z,99.99
2018-09-12T08:03:59.649Z,99.99
2018-09-12T08:04:59.672Z,99.99
2018-09-12T08:05:59.611Z,99.99
2018-09-12T08:06:59.617Z,99.99
2018-09-12T08:07:59.731Z,99.99
2018-09-12T08:08:59.627Z,99.99
2018-09-12T08:09:59.669Z,99.99
2018-09-12T08:10:59.805Z,99.99
2018-09-12T08:11:59.773Z,99.99
2018-09-12T08:12:59.697Z,99.99
2018-09-12T08:14:02.320Z,99.99
2018-09-12T08:14:59.766Z,99.99
2018-09-12T08:15:59.711Z,99.99
2018-09-12T08:16:59.706Z,98.05
2018-09-12T08:17:59.750Z,98.05
2018-09-12T08:18:59.776Z,97.24
2018-09-12T08:19:59.816Z,96.70
2018-09-12T08:20:59.974Z,97.57
2018-09-12T08:21:59.754Z,99.99
2018-09-12T08:22:59.713Z,99.99
2018-09-12T08:23:59.771Z,99.99
2018-09-12T08:24:59.732Z,99.99
2018-09-12T08:25:59.856Z,99.99
2018-09-12T08:26:59.890Z,99.99
2018-09-12T08:27:59.741Z,99.99
2018-09-12T08:28:59.800Z,97.76
2018-09-12T08:29:59.810Z,97.81
2018-09-12T08:30:59.761Z,94.74
2018-09-12T08:31:59.775Z,96.15
2018-09-12T08:32:59.873Z,99.99
2018-09-12T08:34:00.011Z,99.55
2018-09-12T08:34:59.776Z,97.71
2018-09-12T08:35:59.863Z,96.45
2018-09-12T08:36:59.788Z,93.09
2018-09-12T08:38:00.389Z,90.36
2018-09-12T08:39:00.900Z,87.13
2018-09-12T08:39:59.919Z,87.33
2018-09-12T08:40:59.805Z,87.96
2018-09-12T08:41:59.896Z,89.19
2018-09-12T08:42:59.883Z,88.46
2018-09-12T08:43:59.865Z,93.39
2018-09-12T08:44:59.936Z,98.05
2018-09-12T08:46:00.704Z,99.99
2018-09-12T08:47:00.199Z,99.99
2018-09-12T08:47:59.895Z,99.99
2018-09-12T08:49:00.042Z,99.99
2018-09-12T08:49:59.937Z,99.99
2018-09-12T08:51:00.053Z,99.99
2018-09-12T08:52:00.011Z,99.99
2018-09-12T08:53:00.029Z,99.99
2018-09-12T08:54:00.073Z,99.99
2018-09-12T08:55:00.726Z,99.99
2018-09-12T08:56:00.009Z,99.99
2018-09-12T08:56:59.959Z,99.99
2018-09-12T08:57:59.962Z,99.99
2018-09-12T08:58:59.974Z,99.99
2018-09-12T09:00:00.124Z,99.99
2018-09-12T09:00:59.995Z,99.99
2018-09-12T09:02:00.717Z,99.99
2018-09-12T09:03:00.009Z,99.99
2018-09-12T09:04:00.095Z,99.99
2018-09-12T09:05:00.062Z,99.99
2018-09-12T09:06:00.071Z,99.99
2018-09-12T09:07:00.139Z,99.99
2018-09-12T09:08:00.146Z,99.99
2018-09-12T09:09:00.162Z,99.99
2018-09-12T09:10:00.110Z,99.99
2018-09-12T09:11:00.140Z,99.99
2018-09-12T09:12:00.040Z,99.99
2018-09-12T09:13:00.089Z,99.99
2018-09-12T09:14:00.100Z,99.99
2018-09-12T09:15:00.180Z,99.99
2018-09-12T09:16:00.724Z,99.99
2018-09-12T09:17:00.094Z,99.99
2018-09-12T09:18:00.147Z,99.99
2018-09-12T09:19:00.136Z,99.99
2018-09-12T09:20:00.211Z,99.99
2018-09-12T09:21:00.145Z,99.99
2018-09-12T09:22:00.226Z,99.99
2018-09-12T09:23:03.688Z,99.99
2018-09-12T09:24:00.139Z,99.99
2018-09-12T09:25:00.140Z,99.99
2018-09-12T09:26:00.128Z,99.99
2018-09-12T09:27:00.195Z,99.99
2018-09-12T09:28:00.195Z,99.99
2018-09-12T09:29:00.389Z,99.99
2018-09-12T09:30:00.200Z,99.99
2018-09-12T09:31:00.252Z,99.99
2018-09-12T09:32:00.232Z,99.99
2018-09-12T09:33:00.294Z,99.99
2018-09-12T09:34:00.182Z,99.99
2018-09-12T09:35:00.236Z,99.99
2018-09-12T09:36:01.232Z,99.99
2018-09-12T09:37:00.224Z,99.99
2018-09-12T09:38:00.293Z,99.99
2018-09-12T09:39:00.277Z,99.99
2018-09-12T09:40:00.247Z,99.99
2018-09-12T09:41:00.253Z,99.99
2018-09-12T09:42:00.239Z,99.99
2018-09-12T09:43:00.228Z,99.99
2018-09-12T09:44:00.336Z,99.99
2018-09-12T09:45:00.241Z,99.99
2018-09-12T09:46:00.323Z,99.99
2018-09-12T09:47:00.236Z,99.99
2018-09-12T09:48:00.453Z,99.99
2018-09-12T09:49:00.408Z,99.99
2018-09-12T09:50:00.258Z,99.99
2018-09-12T09:51:00.414Z,99.99
2018-09-12T09:52:00.376Z,99.99
2018-09-12T09:53:00.264Z,99.99
2018-09-12T09:54:00.754Z,99.99
2018-09-12T09:55:00.357Z,99.99
2018-09-12T09:56:00.365Z,99.99
2018-09-12T09:57:00.365Z,99.99
2018-09-12T09:58:00.392Z,99.99
2018-09-12T09:59:00.315Z,99.99
2018-09-12T10:00:00.416Z,99.99
2018-09-12T10:01:00.325Z,99.99
2018-09-12T10:02:00.451Z,99.99
2018-09-12T10:03:00.511Z,99.99
2018-09-12T10:04:00.686Z,99.99
2018-09-12T10:05:00.634Z,99.99
2018-09-12T10:06:00.470Z,99.99
2018-09-12T10:07:01.286Z,99.99
2018-09-12T10:08:00.341Z,99.99
2018-09-12T10:09:00.368Z,99.99
2018-09-12T10:10:01.267Z,99.99
2018-09-12T10:11:00.380Z,99.99
2018-09-12T10:12:00.553Z,99.99
2018-09-12T10:13:01.265Z,99.99
2018-09-12T10:14:00.376Z,99.99
2018-09-12T10:15:00.402Z,99.99
2018-09-12T10:16:00.433Z,99.99
2018-09-12T10:17:00.573Z,99.99
2018-09-12T10:18:00.414Z,99.99
2018-09-12T10:19:00.446Z,99.99
2018-09-12T10:20:00.446Z,99.99
2018-09-12T10:21:00.439Z,99.99
2018-09-12T10:22:00.434Z,99.99
2018-09-12T10:23:00.413Z,99.99
2018-09-12T10:24:00.553Z,99.99
2018-09-12T10:25:00.488Z,99.99
2018-09-12T10:26:01.418Z,99.99
2018-09-12T10:27:00.487Z,99.99
2018-09-12T10:28:00.504Z,99.99
2018-09-12T10:29:00.481Z,99.99
2018-09-12T10:30:01.460Z,99.99
2018-09-12T10:31:00.502Z,99.99
2018-09-12T10:32:01.153Z,99.99
2018-09-12T10:33:00.530Z,99.99
2018-09-12T10:34:00.577Z,99.99
2018-09-12T10:35:01.290Z,99.99
2018-09-12T10:36:00.572Z,99.40
2018-09-12T10:37:00.522Z,97.67
2018-09-12T10:38:01.275Z,98.92
2018-09-12T10:39:00.551Z,95.84
2018-09-12T10:40:00.545Z,99.50
2018-09-12T10:41:00.630Z,98.15
2018-09-12T10:42:00.582Z,99.99
2018-09-12T10:43:00.596Z,98.63
2018-09-12T10:44:00.564Z,99.99
2018-09-12T10:45:00.547Z,99.02
2018-09-12T10:46:00.692Z,99.99
2018-09-12T10:47:00.539Z,98.34
2018-09-12T10:48:00.609Z,99.99
2018-09-12T10:49:00.627Z,99.99
2018-09-12T10:50:00.586Z,99.99
2018-09-12T10:51:00.675Z,99.99
2018-09-12T10:52:00.599Z,99.99
2018-09-12T10:53:00.555Z,99.99
2018-09-12T10:54:00.642Z,99.99
2018-09-12T10:55:00.660Z,99.99
2018-09-12T10:56:00.590Z,99.99
2018-09-12T10:57:00.629Z,99.93
2018-09-12T10:58:00.615Z,99.99
2018-09-12T10:59:00.669Z,99.99
2018-09-12T11:00:00.654Z,99.99
2018-09-12T11:01:00.626Z,99.99
2018-09-12T11:02:00.641Z,99.99
2018-09-12T11:03:00.607Z,99.99
2018-09-12T11:04:00.747Z,99.54
2018-09-12T11:05:00.689Z,99.84
2018-09-12T11:06:00.618Z,99.99
2018-09-12T11:07:00.695Z,99.30
2018-09-12T11:08:00.653Z,99.26
2018-09-12T11:09:00.639Z,99.99
2018-09-12T11:10:00.647Z,99.99
2018-09-12T11:11:00.667Z,99.99
2018-09-12T11:12:00.681Z,99.99
2018-09-12T11:13:00.684Z,99.99
2018-09-12T11:14:00.716Z,99.99
2018-09-12T11:15:00.701Z,99.99
2018-09-12T11:16:00.648Z,99.99
2018-09-12T11:17:00.663Z,99.99
2018-09-12T11:18:00.662Z,99.99
2018-09-12T11:19:00.668Z,99.99
2018-09-12T11:20:00.682Z,99.99
2018-09-12T11:21:00.779Z,99.99
2018-09-12T11:22:00.739Z,99.99
2018-09-12T11:23:00.765Z,99.99
2018-09-12T11:24:00.737Z,99.99
2018-09-12T11:25:00.769Z,99.99
2018-09-12T11:26:01.466Z,99.99
2018-09-12T11:27:00.740Z,99.99
2018-09-12T11:28:00.753Z,99.99
2018-09-12T11:29:00.730Z,99.99
2018-09-12T11:30:00.750Z,99.99
2018-09-12T11:31:00.793Z,99.99
2018-09-12T11:32:00.729Z,99.99
2018-09-12T11:33:04.635Z,99.99
2018-09-12T11:34:00.745Z,99.99
2018-09-12T11:35:01.335Z,99.99
2018-09-12T11:36:00.804Z,99.99
2018-09-12T11:37:00.711Z,99.99
2018-09-12T11:39:05.629Z,99.99
2018-09-12T11:40:01.131Z,99.99
2018-09-12T11:41:00.771Z,99.99
2018-09-12T11:42:00.814Z,99.99
2018-09-12T11:43:00.778Z,99.99
2018-09-12T11:46:01.179Z,99.99
2018-09-12T11:47:06.092Z,99.99
2018-09-12T11:48:01.326Z,99.99
2018-09-12T11:49:02.201Z,99.99
2018-09-12T11:51:00.918Z,99.99
2018-09-12T11:52:00.801Z,99.99
2018-09-12T11:53:00.876Z,99.99
2018-09-12T11:54:00.808Z,99.99
2018-09-12T11:55:00.846Z,99.99
2018-09-12T11:56:00.844Z,99.99
2018-09-12T11:57:00.820Z,99.99
2018-09-12T11:58:01.314Z,97.71
2018-09-12T11:59:00.803Z,98.77
2018-09-12T12:00:00.820Z,98.68
2018-09-12T12:01:00.830Z,99.06
2018-09-12T12:02:00.837Z,99.01
2018-09-12T12:03:00.837Z,95.36
2018-09-12T12:04:00.856Z,96.99
2018-09-12T12:05:00.872Z,96.75
2018-09-12T12:06:00.990Z,97.42
2018-09-12T12:07:00.868Z,93.96
2018-09-12T12:08:00.833Z,96.17
2018-09-12T12:09:00.842Z,98.58
2018-09-12T12:10:01.007Z,97.42
2018-09-12T12:11:00.897Z,96.99
2018-09-12T12:12:00.865Z,98.72
2018-09-12T12:13:00.883Z,99.49
2018-09-12T12:14:00.871Z,99.11
2018-09-12T12:15:00.842Z,99.30
2018-09-12T12:16:01.823Z,99.78
2018-09-12T12:17:00.909Z,99.99
2018-09-12T12:18:00.889Z,99.99
2018-09-12T12:19:01.829Z,99.99
2018-09-12T12:20:00.955Z,99.99
2018-09-12T12:21:00.877Z,99.99
2018-09-12T12:22:01.036Z,99.54
2018-09-12T12:23:00.958Z,98.96
2018-09-12T12:24:01.003Z,98.86
2018-09-12T12:25:00.927Z,98.58
2018-09-12T12:26:00.973Z,98.77
2018-09-12T12:27:00.904Z,98.96
2018-09-12T12:28:03.470Z,99.21
2018-09-12T12:29:01.832Z,99.49
2018-09-12T12:30:00.967Z,99.68
2018-09-12T12:31:00.938Z,99.49
2018-09-12T12:32:01.836Z,98.14
2018-09-12T12:33:01.003Z,99.68
2018-09-12T12:34:01.435Z,99.98
2018-09-12T12:35:01.028Z,99.30
2018-09-12T12:36:01.034Z,99.98
2018-09-12T12:37:00.919Z,99.49
2018-09-12T12:38:00.930Z,99.25
2018-09-12T12:39:00.918Z,97.14
2018-09-12T12:40:00.933Z,95.84
2018-09-12T12:41:00.962Z,93.05
2018-09-12T12:42:01.058Z,93.34
2018-09-12T12:43:01.005Z,92.10
2018-09-12T12:44:00.962Z,92.00
2018-09-12T12:45:01.845Z,90.46
2018-09-12T12:46:00.967Z,90.94
2018-09-12T12:47:00.990Z,90.94
2018-09-12T12:48:00.963Z,90.46
2018-09-12T12:49:00.953Z,91.81
2018-09-12T12:50:01.078Z,89.02
2018-09-12T12:51:00.989Z,89.02
2018-09-12T12:52:01.047Z,87.58
2018-09-12T12:53:00.996Z,86.19
2018-09-12T12:54:01.007Z,84.75
2018-09-12T12:55:00.972Z,77.65
2018-09-12T12:56:01.038Z,77.26
2018-09-12T12:57:00.989Z,74.48